sensor_id;sensor_type;location;lat;lon;timestamp;temperature;humidity
35603;DHT22;21725;50.836;4.368;2023-07-02T00:00:06;19.30;99.90
35603;DHT22;21725;50.836;4.368;2023-07-02T00:03:12;19.20;99.90
35603;DHT22;21725;50.836;4.368;2023-07-02T00:06:26;19.10;99.90
35603;DHT22;21725;50.836;4.368;2023-07-02T00:09:32;19.10;99.90
35603;DHT22;21725;50.836;4.368;2023-07-02T00:12:35;19.00;99.90
35603;DHT22;21725;50.836;4.368;2023-07-02T00:15:41;19.10;99.90
35603;DHT22;21725;50.836;4.368;2023-07-02T00:18:52;19.10;99.90
35603;DHT22;21725;50.836;4.368;2023-07-02T00:21:53;19.20;99.90
35603;DHT22;21725;50.836;4.368;2023-07-02T00:25:06;19.20;99.90
35603;DHT22;21725;50.836;4.368;2023-07-02T00:28:09;19.30;99.90
35603;DHT22;21725;50.836;4.368;2023-07-02T00:35:02;19.40;99.90
35603;DHT22;21725;50.836;4.368;2023-07-02T00:38:05;19.50;99.90
35603;DHT22;21725;50.836;4.368;2023-07-02T00:41:37;19.30;99.90
35603;DHT22;21725;50.836;4.368;2023-07-02T00:44:56;19.30;99.90
35603;DHT22;21725;50.836;4.368;2023-07-02T00:48:10;19.40;99.90
35603;DHT22;21725;50.836;4.368;2023-07-02T00:51:31;19.30;99.90
35603;DHT22;21725;50.836;4.368;2023-07-02T00:54:40;19.30;99.90
35603;DHT22;21725;50.836;4.368;2023-07-02T00:57:46;19.20;99.90
35603;DHT22;21725;50.836;4.368;2023-07-02T01:00:47;19.20;99.90
35603;DHT22;21725;50.836;4.368;2023-07-02T01:04:00;19.10;99.90
35603;DHT22;21725;50.836;4.368;2023-07-02T01:07:06;19.20;99.90
35603;DHT22;21725;50.836;4.368;2023-07-02T01:10:12;19.20;99.90
35603;DHT22;21725;50.836;4.368;2023-07-02T01:13:16;19.20;99.90
35603;DHT22;21725;50.836;4.368;2023-07-02T01:16:25;19.20;99.90
35603;DHT22;21725;50.836;4.368;2023-07-02T01:19:50;19.20;99.90
35603;DHT22;21725;50.836;4.368;2023-07-02T01:23:01;19.20;99.90
35603;DHT22;21725;50.836;4.368;2023-07-02T01:26:07;19.30;99.90
35603;DHT22;21725;50.836;4.368;2023-07-02T01:29:31;19.30;99.90
35603;DHT22;21725;50.836;4.368;2023-07-02T01:32:52;19.30;99.90
35603;DHT22;21725;50.836;4.368;2023-07-02T01:36:20;19.20;99.90
35603;DHT22;21725;50.836;4.368;2023-07-02T01:39:31;19.20;99.90
35603;DHT22;21725;50.836;4.368;2023-07-02T01:42:37;19.10;99.90
35603;DHT22;21725;50.836;4.368;2023-07-02T01:45:41;19.20;99.90
35603;DHT22;21725;50.836;4.368;2023-07-02T01:48:47;19.10;99.90
35603;DHT22;21725;50.836;4.368;2023-07-02T01:52:08;19.30;99.90
35603;DHT22;21725;50.836;4.368;2023-07-02T01:55:12;19.30;99.90
35603;DHT22;21725;50.836;4.368;2023-07-02T01:58:23;19.30;99.90
35603;DHT22;21725;50.836;4.368;2023-07-02T02:01:26;19.20;99.90
35603;DHT22;21725;50.836;4.368;2023-07-02T02:04:37;19.20;99.90
35603;DHT22;21725;50.836;4.368;2023-07-02T02:07:38;19.20;99.90
35603;DHT22;21725;50.836;4.368;2023-07-02T02:10:59;19.10;99.90
35603;DHT22;21725;50.836;4.368;2023-07-02T02:14:20;19.10;99.90
35603;DHT22;21725;50.836;4.368;2023-07-02T02:17:51;19.30;99.90
35603;DHT22;21725;50.836;4.368;2023-07-02T02:21:01;19.20;99.90
35603;DHT22;21725;50.836;4.368;2023-07-02T02:24:08;19.00;99.90
35603;DHT22;21725;50.836;4.368;2023-07-02T02:30:40;19.10;99.90
35603;DHT22;21725;50.836;4.368;2023-07-02T02:33:46;18.80;99.90
35603;DHT22;21725;50.836;4.368;2023-07-02T02:36:49;18.40;99.90
35603;DHT22;21725;50.836;4.368;2023-07-02T02:39:50;18.80;99.90
35603;DHT22;21725;50.836;4.368;2023-07-02T02:43:06;18.60;99.90
35603;DHT22;21725;50.836;4.368;2023-07-02T02:46:19;18.70;99.90
35603;DHT22;21725;50.836;4.368;2023-07-02T02:49:30;18.80;99.90
35603;DHT22;21725;50.836;4.368;2023-07-02T02:52:47;18.60;99.90
35603;DHT22;21725;50.836;4.368;2023-07-02T02:59:20;18.60;99.90
35603;DHT22;21725;50.836;4.368;2023-07-02T03:02:43;18.50;99.90
35603;DHT22;21725;50.836;4.368;2023-07-02T03:05:49;18.60;99.90
35603;DHT22;21725;50.836;4.368;2023-07-02T03:08:52;18.50;99.90
35603;DHT22;21725;50.836;4.368;2023-07-02T03:11:56;18.50;99.90
35603;DHT22;21725;50.836;4.368;2023-07-02T03:15:04;18.60;99.90
35603;DHT22;21725;50.836;4.368;2023-07-02T03:18:07;18.60;99.90
35603;DHT22;21725;50.836;4.368;2023-07-02T03:21:09;18.50;99.90
35603;DHT22;21725;50.836;4.368;2023-07-02T03:24:14;18.50;99.90
35603;DHT22;21725;50.836;4.368;2023-07-02T03:27:22;18.40;99.90
35603;DHT22;21725;50.836;4.368;2023-07-02T03:30:34;18.60;99.90
35603;DHT22;21725;50.836;4.368;2023-07-02T03:33:42;18.20;99.90
35603;DHT22;21725;50.836;4.368;2023-07-02T03:36:43;18.50;99.90
35603;DHT22;21725;50.836;4.368;2023-07-02T03:39:47;18.60;99.90
35603;DHT22;21725;50.836;4.368;2023-07-02T03:42:57;18.60;99.90
35603;DHT22;21725;50.836;4.368;2023-07-02T03:46:08;18.60;99.90
35603;DHT22;21725;50.836;4.368;2023-07-02T03:49:18;18.40;99.90
35603;DHT22;21725;50.836;4.368;2023-07-02T03:52:34;18.30;99.90
35603;DHT22;21725;50.836;4.368;2023-07-02T03:55:35;18.40;99.90
35603;DHT22;21725;50.836;4.368;2023-07-02T03:58:45;18.50;99.90
35603;DHT22;21725;50.836;4.368;2023-07-02T04:01:48;18.50;99.90
35603;DHT22;21725;50.836;4.368;2023-07-02T04:05:16;18.40;99.90
35603;DHT22;21725;50.836;4.368;2023-07-02T04:08:28;18.40;99.90
35603;DHT22;21725;50.836;4.368;2023-07-02T04:15:30;18.30;99.90
35603;DHT22;21725;50.836;4.368;2023-07-02T04:18:43;18.30;99.90
35603;DHT22;21725;50.836;4.368;2023-07-02T04:21:46;18.40;99.90
35603;DHT22;21725;50.836;4.368;2023-07-02T04:24:52;18.30;99.90
35603;DHT22;21725;50.836;4.368;2023-07-02T04:27:55;18.20;99.90
35603;DHT22;21725;50.836;4.368;2023-07-02T04:31:13;18.20;99.90
35603;DHT22;21725;50.836;4.368;2023-07-02T04:37:39;18.10;99.90
35603;DHT22;21725;50.836;4.368;2023-07-02T04:40:59;18.00;99.90
35603;DHT22;21725;50.836;4.368;2023-07-02T04:44:18;18.00;99.90
35603;DHT22;21725;50.836;4.368;2023-07-02T04:47:30;18.10;99.90
35603;DHT22;21725;50.836;4.368;2023-07-02T04:50:36;18.30;99.90
35603;DHT22;21725;50.836;4.368;2023-07-02T04:53:59;18.40;99.90
35603;DHT22;21725;50.836;4.368;2023-07-02T04:57:03;18.30;99.90
35603;DHT22;21725;50.836;4.368;2023-07-02T05:00:09;18.40;99.90
35603;DHT22;21725;50.836;4.368;2023-07-02T05:03:20;18.30;99.90
35603;DHT22;21725;50.836;4.368;2023-07-02T05:06:25;18.60;99.90
35603;DHT22;21725;50.836;4.368;2023-07-02T05:09:48;18.50;99.90
35603;DHT22;21725;50.836;4.368;2023-07-02T05:12:56;18.70;99.90
35603;DHT22;21725;50.836;4.368;2023-07-02T05:19:23;18.60;99.90
35603;DHT22;21725;50.836;4.368;2023-07-02T05:22:36;18.70;99.90
35603;DHT22;21725;50.836;4.368;2023-07-02T05:25:37;18.80;99.90
35603;DHT22;21725;50.836;4.368;2023-07-02T05:28:42;18.90;99.90
35603;DHT22;21725;50.836;4.368;2023-07-02T05:32:04;18.80;99.90
35603;DHT22;21725;50.836;4.368;2023-07-02T05:35:05;18.90;99.90
35603;DHT22;21725;50.836;4.368;2023-07-02T05:38:06;19.10;99.90
35603;DHT22;21725;50.836;4.368;2023-07-02T05:41:26;19.40;99.90
35603;DHT22;21725;50.836;4.368;2023-07-02T05:44:33;19.60;99.90
35603;DHT22;21725;50.836;4.368;2023-07-02T05:47:43;19.90;99.90
35603;DHT22;21725;50.836;4.368;2023-07-02T05:54:15;19.50;99.90
35603;DHT22;21725;50.836;4.368;2023-07-02T05:57:33;19.20;99.90
35603;DHT22;21725;50.836;4.368;2023-07-02T06:00:36;19.70;99.90
35603;DHT22;21725;50.836;4.368;2023-07-02T06:03:40;20.00;99.90
35603;DHT22;21725;50.836;4.368;2023-07-02T06:06:54;20.00;99.90
35603;DHT22;21725;50.836;4.368;2023-07-02T06:10:14;20.10;99.90
35603;DHT22;21725;50.836;4.368;2023-07-02T06:13:22;20.20;99.90
35603;DHT22;21725;50.836;4.368;2023-07-02T06:16:25;20.10;99.90
35603;DHT22;21725;50.836;4.368;2023-07-02T06:19:39;20.10;99.90
35603;DHT22;21725;50.836;4.368;2023-07-02T06:22:43;20.30;99.90
35603;DHT22;21725;50.836;4.368;2023-07-02T06:26:10;20.50;99.90
35603;DHT22;21725;50.836;4.368;2023-07-02T06:29:21;20.60;99.90
35603;DHT22;21725;50.836;4.368;2023-07-02T06:32:49;20.80;99.90
35603;DHT22;21725;50.836;4.368;2023-07-02T06:36:10;20.70;99.90
35603;DHT22;21725;50.836;4.368;2023-07-02T06:39:15;21.60;99.90
35603;DHT22;21725;50.836;4.368;2023-07-02T06:42:43;22.30;98.90
35603;DHT22;21725;50.836;4.368;2023-07-02T06:45:46;22.60;98.40
35603;DHT22;21725;50.836;4.368;2023-07-02T06:48:47;22.60;97.80
35603;DHT22;21725;50.836;4.368;2023-07-02T06:51:53;22.20;98.40
35603;DHT22;21725;50.836;4.368;2023-07-02T06:55:04;21.70;99.10
35603;DHT22;21725;50.836;4.368;2023-07-02T06:58:41;22.10;98.20
35603;DHT22;21725;50.836;4.368;2023-07-02T07:01:44;22.40;96.60
35603;DHT22;21725;50.836;4.368;2023-07-02T07:04:48;22.60;96.40
35603;DHT22;21725;50.836;4.368;2023-07-02T07:08:09;22.90;95.70
35603;DHT22;21725;50.836;4.368;2023-07-02T07:11:12;22.90;95.20
35603;DHT22;21725;50.836;4.368;2023-07-02T07:14:13;22.80;94.40
35603;DHT22;21725;50.836;4.368;2023-07-02T07:17:19;22.70;94.40
35603;DHT22;21725;50.836;4.368;2023-07-02T07:20:28;22.40;94.30
35603;DHT22;21725;50.836;4.368;2023-07-02T07:23:40;23.00;93.70
35603;DHT22;21725;50.836;4.368;2023-07-02T07:26:52;22.60;93.30
35603;DHT22;21725;50.836;4.368;2023-07-02T07:29:53;22.60;93.10
35603;DHT22;21725;50.836;4.368;2023-07-02T07:32:56;22.50;93.10
35603;DHT22;21725;50.836;4.368;2023-07-02T07:39:28;22.40;93.20
35603;DHT22;21725;50.836;4.368;2023-07-02T07:42:36;22.40;93.20
35603;DHT22;21725;50.836;4.368;2023-07-02T07:45:37;22.60;92.70
35603;DHT22;21725;50.836;4.368;2023-07-02T07:48:41;22.70;92.40
35603;DHT22;21725;50.836;4.368;2023-07-02T07:51:54;22.70;92.40
35603;DHT22;21725;50.836;4.368;2023-07-02T07:54:57;22.70;92.60
35603;DHT22;21725;50.836;4.368;2023-07-02T07:58:18;22.80;92.70
35603;DHT22;21725;50.836;4.368;2023-07-02T08:01:39;23.00;91.90
35603;DHT22;21725;50.836;4.368;2023-07-02T08:04:44;23.20;91.40
35603;DHT22;21725;50.836;4.368;2023-07-02T08:07:47;23.20;91.30
35603;DHT22;21725;50.836;4.368;2023-07-02T08:11:02;22.80;91.40
35603;DHT22;21725;50.836;4.368;2023-07-02T08:18:38;23.30;91.10
35603;DHT22;21725;50.836;4.368;2023-07-02T08:21:45;23.60;90.80
35603;DHT22;21725;50.836;4.368;2023-07-02T08:24:59;23.80;90.00
35603;DHT22;21725;50.836;4.368;2023-07-02T08:28:02;23.60;89.60
35603;DHT22;21725;50.836;4.368;2023-07-02T08:31:12;23.70;90.10
35603;DHT22;21725;50.836;4.368;2023-07-02T08:34:24;23.80;90.10
35603;DHT22;21725;50.836;4.368;2023-07-02T08:37:31;23.80;88.80
35603;DHT22;21725;50.836;4.368;2023-07-02T08:40:42;23.80;89.70
35603;DHT22;21725;50.836;4.368;2023-07-02T08:43:55;23.60;90.00
35603;DHT22;21725;50.836;4.368;2023-07-02T08:47:03;23.50;90.30
35603;DHT22;21725;50.836;4.368;2023-07-02T08:50:12;23.50;90.20
35603;DHT22;21725;50.836;4.368;2023-07-02T08:53:12;23.10;90.40
35603;DHT22;21725;50.836;4.368;2023-07-02T08:56:23;22.50;91.20
35603;DHT22;21725;50.836;4.368;2023-07-02T08:59:36;22.10;91.40
35603;DHT22;21725;50.836;4.368;2023-07-02T09:02:44;22.10;91.80
35603;DHT22;21725;50.836;4.368;2023-07-02T09:05:53;22.60;91.20
35603;DHT22;21725;50.836;4.368;2023-07-02T09:09:07;23.30;89.90
35603;DHT22;21725;50.836;4.368;2023-07-02T09:12:24;23.50;88.40
35603;DHT22;21725;50.836;4.368;2023-07-02T09:15:41;23.50;90.00
35603;DHT22;21725;50.836;4.368;2023-07-02T09:19:09;23.30;90.50
35603;DHT22;21725;50.836;4.368;2023-07-02T09:22:29;22.90;91.30
35603;DHT22;21725;50.836;4.368;2023-07-02T09:25:54;22.40;91.00
35603;DHT22;21725;50.836;4.368;2023-07-02T09:29:10;22.50;91.10
35603;DHT22;21725;50.836;4.368;2023-07-02T09:32:32;22.70;90.50
35603;DHT22;21725;50.836;4.368;2023-07-02T09:35:45;22.20;88.70
35603;DHT22;21725;50.836;4.368;2023-07-02T09:38:49;22.90;89.70
35603;DHT22;21725;50.836;4.368;2023-07-02T09:41:53;23.30;87.60
35603;DHT22;21725;50.836;4.368;2023-07-02T09:45:17;23.70;85.40
35603;DHT22;21725;50.836;4.368;2023-07-02T09:48:36;23.60;85.50
35603;DHT22;21725;50.836;4.368;2023-07-02T09:51:41;23.20;85.90
35603;DHT22;21725;50.836;4.368;2023-07-02T09:54:54;22.90;87.50
35603;DHT22;21725;50.836;4.368;2023-07-02T09:57:57;23.10;88.70
35603;DHT22;21725;50.836;4.368;2023-07-02T10:01:07;22.40;88.20
35603;DHT22;21725;50.836;4.368;2023-07-02T10:18:33;23.50;84.10
35603;DHT22;21725;50.836;4.368;2023-07-02T10:22:06;23.50;84.80
35603;DHT22;21725;50.836;4.368;2023-07-02T10:25:32;23.40;83.50
35603;DHT22;21725;50.836;4.368;2023-07-02T10:29:00;23.40;81.70
35603;DHT22;21725;50.836;4.368;2023-07-02T10:32:25;22.90;84.30
35603;DHT22;21725;50.836;4.368;2023-07-02T10:35:36;22.60;86.70
35603;DHT22;21725;50.836;4.368;2023-07-02T10:38:42;22.50;85.10
35603;DHT22;21725;50.836;4.368;2023-07-02T10:41:52;22.60;86.90
35603;DHT22;21725;50.836;4.368;2023-07-02T10:44:55;22.70;87.70
35603;DHT22;21725;50.836;4.368;2023-07-02T10:48:08;23.00;87.40
35603;DHT22;21725;50.836;4.368;2023-07-02T10:51:18;23.40;83.80
35603;DHT22;21725;50.836;4.368;2023-07-02T10:55:04;23.70;81.30
35603;DHT22;21725;50.836;4.368;2023-07-02T10:58:11;24.00;80.80
35603;DHT22;21725;50.836;4.368;2023-07-02T11:01:35;24.30;80.70
35603;DHT22;21725;50.836;4.368;2023-07-02T11:04:39;24.30;79.70
35603;DHT22;21725;50.836;4.368;2023-07-02T11:08:05;24.00;79.30
35603;DHT22;21725;50.836;4.368;2023-07-02T11:11:15;23.90;80.30
35603;DHT22;21725;50.836;4.368;2023-07-02T11:17:52;24.20;80.00
35603;DHT22;21725;50.836;4.368;2023-07-02T11:20:57;23.90;79.70
35603;DHT22;21725;50.836;4.368;2023-07-02T11:24:16;23.60;80.40
35603;DHT22;21725;50.836;4.368;2023-07-02T11:27:24;23.60;80.10
35603;DHT22;21725;50.836;4.368;2023-07-02T11:30:33;23.60;80.30
35603;DHT22;21725;50.836;4.368;2023-07-02T11:33:45;23.70;80.40
35603;DHT22;21725;50.836;4.368;2023-07-02T11:36:47;24.00;79.30
35603;DHT22;21725;50.836;4.368;2023-07-02T11:39:52;23.80;77.70
35603;DHT22;21725;50.836;4.368;2023-07-02T11:42:58;23.60;79.10
35603;DHT22;21725;50.836;4.368;2023-07-02T11:45:59;23.60;78.70
35603;DHT22;21725;50.836;4.368;2023-07-02T11:49:11;24.00;78.70
35603;DHT22;21725;50.836;4.368;2023-07-02T11:52:22;24.00;78.70
35603;DHT22;21725;50.836;4.368;2023-07-02T11:55:25;24.00;79.10
35603;DHT22;21725;50.836;4.368;2023-07-02T11:58:43;24.20;79.50
35603;DHT22;21725;50.836;4.368;2023-07-02T12:01:46;24.60;78.50
35603;DHT22;21725;50.836;4.368;2023-07-02T12:08:11;24.70;78.80
35603;DHT22;21725;50.836;4.368;2023-07-02T12:11:11;24.60;77.70
35603;DHT22;21725;50.836;4.368;2023-07-02T12:14:23;24.60;76.50
35603;DHT22;21725;50.836;4.368;2023-07-02T12:17:24;24.60;75.70
35603;DHT22;21725;50.836;4.368;2023-07-02T12:20:56;24.60;76.10
35603;DHT22;21725;50.836;4.368;2023-07-02T12:23:59;24.50;76.20
35603;DHT22;21725;50.836;4.368;2023-07-02T12:27:02;24.50;76.60
35603;DHT22;21725;50.836;4.368;2023-07-02T12:30:16;24.70;76.50
35603;DHT22;21725;50.836;4.368;2023-07-02T12:33:22;24.70;76.90
35603;DHT22;21725;50.836;4.368;2023-07-02T12:36:43;24.50;76.40
35603;DHT22;21725;50.836;4.368;2023-07-02T12:40:01;24.50;76.10
35603;DHT22;21725;50.836;4.368;2023-07-02T12:43:14;24.20;76.50
35603;DHT22;21725;50.836;4.368;2023-07-02T12:46:30;24.40;76.70
35603;DHT22;21725;50.836;4.368;2023-07-02T12:49:43;24.50;77.60
35603;DHT22;21725;50.836;4.368;2023-07-02T12:52:44;24.70;77.90
35603;DHT22;21725;50.836;4.368;2023-07-02T12:55:53;25.10;77.80
35603;DHT22;21725;50.836;4.368;2023-07-02T12:58:56;25.70;76.50
35603;DHT22;21725;50.836;4.368;2023-07-02T13:01:59;25.90;75.20
35603;DHT22;21725;50.836;4.368;2023-07-02T13:05:13;25.60;76.10
35603;DHT22;21725;50.836;4.368;2023-07-02T13:08:17;25.70;75.70
35603;DHT22;21725;50.836;4.368;2023-07-02T13:11:40;25.70;75.00
35603;DHT22;21725;50.836;4.368;2023-07-02T13:14:42;25.50;75.30
35603;DHT22;21725;50.836;4.368;2023-07-02T13:17:48;25.40;75.80
35603;DHT22;21725;50.836;4.368;2023-07-02T13:20:56;25.20;75.70
35603;DHT22;21725;50.836;4.368;2023-07-02T13:24:00;25.20;75.40
35603;DHT22;21725;50.836;4.368;2023-07-02T13:27:24;25.30;75.50
35603;DHT22;21725;50.836;4.368;2023-07-02T13:30:24;25.10;75.30
35603;DHT22;21725;50.836;4.368;2023-07-02T13:33:56;24.90;76.30
35603;DHT22;21725;50.836;4.368;2023-07-02T13:36:57;25.10;75.20
35603;DHT22;21725;50.836;4.368;2023-07-02T13:40:09;25.10;75.80
35603;DHT22;21725;50.836;4.368;2023-07-02T13:43:35;24.90;75.50
35603;DHT22;21725;50.836;4.368;2023-07-02T13:46:47;24.50;76.10
35603;DHT22;21725;50.836;4.368;2023-07-02T13:50:18;24.30;76.90
35603;DHT22;21725;50.836;4.368;2023-07-02T13:53:41;24.50;76.70
35603;DHT22;21725;50.836;4.368;2023-07-02T13:56:42;24.90;76.40
35603;DHT22;21725;50.836;4.368;2023-07-02T13:59:45;25.00;76.00
35603;DHT22;21725;50.836;4.368;2023-07-02T14:02:54;24.70;76.60
35603;DHT22;21725;50.836;4.368;2023-07-02T14:05:54;24.50;77.10
35603;DHT22;21725;50.836;4.368;2023-07-02T14:09:30;24.50;77.40
35603;DHT22;21725;50.836;4.368;2023-07-02T14:12:41;24.60;77.00
35603;DHT22;21725;50.836;4.368;2023-07-02T14:16:02;24.90;76.60
35603;DHT22;21725;50.836;4.368;2023-07-02T14:19:13;24.70;76.30
35603;DHT22;21725;50.836;4.368;2023-07-02T14:22:23;25.10;75.80
35603;DHT22;21725;50.836;4.368;2023-07-02T14:25:49;25.30;75.30
35603;DHT22;21725;50.836;4.368;2023-07-02T14:28:53;25.40;75.10
35603;DHT22;21725;50.836;4.368;2023-07-02T14:31:56;25.40;75.40
35603;DHT22;21725;50.836;4.368;2023-07-02T14:34:59;25.60;74.30
35603;DHT22;21725;50.836;4.368;2023-07-02T14:38:07;25.50;74.70
35603;DHT22;21725;50.836;4.368;2023-07-02T14:41:07;25.20;75.10
35603;DHT22;21725;50.836;4.368;2023-07-02T14:44:08;25.00;75.90
35603;DHT22;21725;50.836;4.368;2023-07-02T14:47:14;25.20;75.90
35603;DHT22;21725;50.836;4.368;2023-07-02T14:50:22;25.40;75.30
35603;DHT22;21725;50.836;4.368;2023-07-02T14:53:29;25.40;74.80
35603;DHT22;21725;50.836;4.368;2023-07-02T14:56:33;25.40;74.70
35603;DHT22;21725;50.836;4.368;2023-07-02T14:59:41;25.20;74.70
35603;DHT22;21725;50.836;4.368;2023-07-02T15:02:46;24.80;75.40
35603;DHT22;21725;50.836;4.368;2023-07-02T15:06:12;24.60;75.60
35603;DHT22;21725;50.836;4.368;2023-07-02T15:09:16;25.10;74.60
35603;DHT22;21725;50.836;4.368;2023-07-02T15:12:28;24.80;75.00
35603;DHT22;21725;50.836;4.368;2023-07-02T15:15:29;24.40;75.90
35603;DHT22;21725;50.836;4.368;2023-07-02T15:18:40;24.40;75.90
35603;DHT22;21725;50.836;4.368;2023-07-02T15:21:41;24.80;75.50
35603;DHT22;21725;50.836;4.368;2023-07-02T15:24:52;24.80;75.10
35603;DHT22;21725;50.836;4.368;2023-07-02T15:28:09;24.30;75.00
35603;DHT22;21725;50.836;4.368;2023-07-02T15:31:38;24.30;76.00
35603;DHT22;21725;50.836;4.368;2023-07-02T15:34:53;24.00;77.00
35603;DHT22;21725;50.836;4.368;2023-07-02T15:37:57;24.00;77.20
35603;DHT22;21725;50.836;4.368;2023-07-02T15:41:10;24.30;76.60
35603;DHT22;21725;50.836;4.368;2023-07-02T15:44:11;24.30;76.00
35603;DHT22;21725;50.836;4.368;2023-07-02T15:50:58;23.90;76.60
35603;DHT22;21725;50.836;4.368;2023-07-02T15:54:02;23.90;76.60
35603;DHT22;21725;50.836;4.368;2023-07-02T15:57:33;24.10;76.30
35603;DHT22;21725;50.836;4.368;2023-07-02T16:01:13;24.00;76.40
35603;DHT22;21725;50.836;4.368;2023-07-02T16:08:00;24.40;75.50
35603;DHT22;21725;50.836;4.368;2023-07-02T16:11:09;24.30;76.00
35603;DHT22;21725;50.836;4.368;2023-07-02T16:14:16;24.20;76.00
35603;DHT22;21725;50.836;4.368;2023-07-02T16:17:22;24.20;75.30
35603;DHT22;21725;50.836;4.368;2023-07-02T16:20:23;24.20;75.00
35603;DHT22;21725;50.836;4.368;2023-07-02T16:23:33;23.80;75.60
35603;DHT22;21725;50.836;4.368;2023-07-02T16:26:45;23.70;75.80
35603;DHT22;21725;50.836;4.368;2023-07-02T16:29:48;23.80;75.60
35603;DHT22;21725;50.836;4.368;2023-07-02T16:33:26;23.80;75.60
35603;DHT22;21725;50.836;4.368;2023-07-02T16:36:49;23.90;75.60
35603;DHT22;21725;50.836;4.368;2023-07-02T16:39:57;23.80;74.10
35603;DHT22;21725;50.836;4.368;2023-07-02T16:43:08;23.60;75.00
35603;DHT22;21725;50.836;4.368;2023-07-02T16:46:33;23.80;75.30
35603;DHT22;21725;50.836;4.368;2023-07-02T16:49:44;23.80;75.70
35603;DHT22;21725;50.836;4.368;2023-07-02T16:52:47;23.40;76.50
35603;DHT22;21725;50.836;4.368;2023-07-02T17:00:05;23.30;76.50
35603;DHT22;21725;50.836;4.368;2023-07-02T17:03:44;23.50;76.60
35603;DHT22;21725;50.836;4.368;2023-07-02T17:07:15;23.70;76.10
35603;DHT22;21725;50.836;4.368;2023-07-02T17:10:28;23.80;76.20
35603;DHT22;21725;50.836;4.368;2023-07-02T17:13:33;23.40;76.70
35603;DHT22;21725;50.836;4.368;2023-07-02T17:16:44;23.20;77.60
35603;DHT22;21725;50.836;4.368;2023-07-02T17:19:48;23.20;77.60
35603;DHT22;21725;50.836;4.368;2023-07-02T17:30:17;23.20;77.90
35603;DHT22;21725;50.836;4.368;2023-07-02T17:33:28;22.90;78.60
35603;DHT22;21725;50.836;4.368;2023-07-02T17:36:54;22.90;79.00
35603;DHT22;21725;50.836;4.368;2023-07-02T17:44:02;22.70;78.80
35603;DHT22;21725;50.836;4.368;2023-07-02T17:47:19;22.60;78.50
35603;DHT22;21725;50.836;4.368;2023-07-02T17:50:33;22.60;78.50
35603;DHT22;21725;50.836;4.368;2023-07-02T17:53:55;23.00;79.40
35603;DHT22;21725;50.836;4.368;2023-07-02T17:57:00;22.70;79.00
35603;DHT22;21725;50.836;4.368;2023-07-02T18:03:57;22.10;79.50
35603;DHT22;21725;50.836;4.368;2023-07-02T18:07:16;22.10;80.10
35603;DHT22;21725;50.836;4.368;2023-07-02T18:10:19;21.90;79.90
35603;DHT22;21725;50.836;4.368;2023-07-02T18:13:30;21.70;80.20
35603;DHT22;21725;50.836;4.368;2023-07-02T18:17:09;21.60;80.00
35603;DHT22;21725;50.836;4.368;2023-07-02T18:20:11;21.30;80.00
35603;DHT22;21725;50.836;4.368;2023-07-02T18:27:07;21.20;79.60
35603;DHT22;21725;50.836;4.368;2023-07-02T18:30:28;21.00;78.10
35603;DHT22;21725;50.836;4.368;2023-07-02T18:33:44;20.70;78.80
35603;DHT22;21725;50.836;4.368;2023-07-02T18:36:55;20.60;79.00
35603;DHT22;21725;50.836;4.368;2023-07-02T18:40:11;20.60;79.40
35603;DHT22;21725;50.836;4.368;2023-07-02T18:43:22;20.30;79.50
35603;DHT22;21725;50.836;4.368;2023-07-02T18:47:09;20.60;79.60
35603;DHT22;21725;50.836;4.368;2023-07-02T18:50:13;20.60;79.80
35603;DHT22;21725;50.836;4.368;2023-07-02T18:53:22;20.40;80.00
35603;DHT22;21725;50.836;4.368;2023-07-02T18:56:34;20.50;80.10
35603;DHT22;21725;50.836;4.368;2023-07-02T18:59:36;20.40;80.60
35603;DHT22;21725;50.836;4.368;2023-07-02T19:02:37;20.40;81.00
35603;DHT22;21725;50.836;4.368;2023-07-02T19:05:38;20.30;81.40
35603;DHT22;21725;50.836;4.368;2023-07-02T19:08:39;20.20;81.90
35603;DHT22;21725;50.836;4.368;2023-07-02T19:11:40;20.10;82.20
35603;DHT22;21725;50.836;4.368;2023-07-02T19:14:41;19.90;82.60
35603;DHT22;21725;50.836;4.368;2023-07-02T19:17:42;19.80;83.20
35603;DHT22;21725;50.836;4.368;2023-07-02T19:20:43;19.80;83.10
35603;DHT22;21725;50.836;4.368;2023-07-02T19:23:44;19.80;82.90
35603;DHT22;21725;50.836;4.368;2023-07-02T19:26:45;19.70;83.10
35603;DHT22;21725;50.836;4.368;2023-07-02T19:29:49;19.70;83.30
35603;DHT22;21725;50.836;4.368;2023-07-02T19:32:56;19.70;83.30
35603;DHT22;21725;50.836;4.368;2023-07-02T19:35:57;19.80;82.90
35603;DHT22;21725;50.836;4.368;2023-07-02T19:38:58;19.70;83.20
35603;DHT22;21725;50.836;4.368;2023-07-02T19:41:59;19.70;83.10
35603;DHT22;21725;50.836;4.368;2023-07-02T19:45:00;19.70;83.10
35603;DHT22;21725;50.836;4.368;2023-07-02T19:48:01;19.60;83.70
35603;DHT22;21725;50.836;4.368;2023-07-02T19:51:11;19.50;83.50
35603;DHT22;21725;50.836;4.368;2023-07-02T19:54:45;19.50;83.50
35603;DHT22;21725;50.836;4.368;2023-07-02T19:57:46;19.50;83.70
35603;DHT22;21725;50.836;4.368;2023-07-02T20:00:49;19.50;83.80
35603;DHT22;21725;50.836;4.368;2023-07-02T20:03:51;19.50;84.20
35603;DHT22;21725;50.836;4.368;2023-07-02T20:06:52;19.30;84.80
35603;DHT22;21725;50.836;4.368;2023-07-02T20:10:05;19.20;85.00
35603;DHT22;21725;50.836;4.368;2023-07-02T20:13:08;19.20;85.00
35603;DHT22;21725;50.836;4.368;2023-07-02T20:19:38;19.30;84.90
35603;DHT22;21725;50.836;4.368;2023-07-02T20:22:59;19.40;85.00
35603;DHT22;21725;50.836;4.368;2023-07-02T20:26:17;19.40;85.10
35603;DHT22;21725;50.836;4.368;2023-07-02T20:33:04;19.40;85.00
35603;DHT22;21725;50.836;4.368;2023-07-02T20:36:04;19.30;85.40
35603;DHT22;21725;50.836;4.368;2023-07-02T20:39:06;19.40;85.00
35603;DHT22;21725;50.836;4.368;2023-07-02T20:42:10;19.50;84.90
35603;DHT22;21725;50.836;4.368;2023-07-02T20:45:12;19.60;85.10
35603;DHT22;21725;50.836;4.368;2023-07-02T20:48:13;19.60;84.70
35603;DHT22;21725;50.836;4.368;2023-07-02T20:51:15;19.50;85.00
35603;DHT22;21725;50.836;4.368;2023-07-02T20:54:17;19.40;84.90
35603;DHT22;21725;50.836;4.368;2023-07-02T20:57:18;19.20;85.30
35603;DHT22;21725;50.836;4.368;2023-07-02T21:00:19;19.10;85.40
35603;DHT22;21725;50.836;4.368;2023-07-02T21:03:20;18.90;86.10
35603;DHT22;21725;50.836;4.368;2023-07-02T21:06:20;18.80;86.10
35603;DHT22;21725;50.836;4.368;2023-07-02T21:09:25;18.70;86.10
35603;DHT22;21725;50.836;4.368;2023-07-02T21:12:30;18.60;86.40
35603;DHT22;21725;50.836;4.368;2023-07-02T21:15:33;18.60;86.40
35603;DHT22;21725;50.836;4.368;2023-07-02T21:18:39;18.50;86.90
35603;DHT22;21725;50.836;4.368;2023-07-02T21:21:46;18.40;87.30
35603;DHT22;21725;50.836;4.368;2023-07-02T21:24:50;18.40;87.30
35603;DHT22;21725;50.836;4.368;2023-07-02T21:27:54;18.50;87.80
35603;DHT22;21725;50.836;4.368;2023-07-02T21:30:55;18.50;87.50